sensor_id;sensor_type;location;lat;lon;timestamp;temperature;humidity
61374;DHT22;47242;48.158;-1.586;2022-10-15T00:02:19;17.80;90.00
61374;DHT22;47242;48.158;-1.586;2022-10-15T00:04:45;17.80;89.90
61374;DHT22;47242;48.158;-1.586;2022-10-15T00:07:12;17.90;89.90
61374;DHT22;47242;48.158;-1.586;2022-10-15T00:09:38;17.90;89.90
61374;DHT22;47242;48.158;-1.586;2022-10-15T00:12:04;17.90;89.90
61374;DHT22;47242;48.158;-1.586;2022-10-15T00:14:29;17.90;89.90
61374;DHT22;47242;48.158;-1.586;2022-10-15T00:16:55;17.90;90.00
61374;DHT22;47242;48.158;-1.586;2022-10-15T00:19:21;17.90;90.00
61374;DHT22;47242;48.158;-1.586;2022-10-15T00:21:46;17.90;89.80
61374;DHT22;47242;48.158;-1.586;2022-10-15T00:24:12;17.90;89.90
61374;DHT22;47242;48.158;-1.586;2022-10-15T00:26:37;17.90;90.10
61374;DHT22;47242;48.158;-1.586;2022-10-15T00:29:03;17.90;90.00
61374;DHT22;47242;48.158;-1.586;2022-10-15T00:31:30;17.90;90.00
61374;DHT22;47242;48.158;-1.586;2022-10-15T00:33:58;17.90;90.10
61374;DHT22;47242;48.158;-1.586;2022-10-15T00:36:31;17.90;90.00
61374;DHT22;47242;48.158;-1.586;2022-10-15T00:38:57;18.00;90.00
61374;DHT22;47242;48.158;-1.586;2022-10-15T00:41:35;18.00;89.90
61374;DHT22;47242;48.158;-1.586;2022-10-15T00:46:53;18.00;89.90
61374;DHT22;47242;48.158;-1.586;2022-10-15T00:50:24;18.00;89.90
61374;DHT22;47242;48.158;-1.586;2022-10-15T00:55:12;18.00;90.00
61374;DHT22;47242;48.158;-1.586;2022-10-15T00:57:39;18.00;90.00
61374;DHT22;47242;48.158;-1.586;2022-10-15T01:00:08;18.00;90.00
61374;DHT22;47242;48.158;-1.586;2022-10-15T01:02:34;18.00;90.10
61374;DHT22;47242;48.158;-1.586;2022-10-15T01:05:00;18.00;90.00
61374;DHT22;47242;48.158;-1.586;2022-10-15T01:07:26;18.00;90.00
61374;DHT22;47242;48.158;-1.586;2022-10-15T01:09:52;18.00;89.90
61374;DHT22;47242;48.158;-1.586;2022-10-15T01:17:44;18.00;90.00
61374;DHT22;47242;48.158;-1.586;2022-10-15T01:31:07;18.00;89.80
61374;DHT22;47242;48.158;-1.586;2022-10-15T01:33:47;18.00;89.80
61374;DHT22;47242;48.158;-1.586;2022-10-15T01:39:38;18.00;89.90
61374;DHT22;47242;48.158;-1.586;2022-10-15T01:42:21;18.00;89.70
61374;DHT22;47242;48.158;-1.586;2022-10-15T01:44:53;18.00;89.70
61374;DHT22;47242;48.158;-1.586;2022-10-15T01:47:23;18.00;89.70
61374;DHT22;47242;48.158;-1.586;2022-10-15T01:49:53;18.00;89.60
61374;DHT22;47242;48.158;-1.586;2022-10-15T01:52:26;18.00;89.70
61374;DHT22;47242;48.158;-1.586;2022-10-15T01:55:13;18.00;89.60
61374;DHT22;47242;48.158;-1.586;2022-10-15T01:57:43;17.90;89.50
61374;DHT22;47242;48.158;-1.586;2022-10-15T02:00:10;18.00;89.50
61374;DHT22;47242;48.158;-1.586;2022-10-15T02:02:36;18.00;89.30
61374;DHT22;47242;48.158;-1.586;2022-10-15T02:05:08;18.00;89.30
61374;DHT22;47242;48.158;-1.586;2022-10-15T02:07:42;18.00;89.20
61374;DHT22;47242;48.158;-1.586;2022-10-15T02:13:19;18.00;88.90
61374;DHT22;47242;48.158;-1.586;2022-10-15T02:24:14;18.00;88.80
61374;DHT22;47242;48.158;-1.586;2022-10-15T02:26:42;17.90;88.70
61374;DHT22;47242;48.158;-1.586;2022-10-15T02:29:19;17.90;88.70
61374;DHT22;47242;48.158;-1.586;2022-10-15T02:31:46;17.80;88.50
61374;DHT22;47242;48.158;-1.586;2022-10-15T02:34:18;17.90;88.60
61374;DHT22;47242;48.158;-1.586;2022-10-15T02:36:45;17.80;88.40
61374;DHT22;47242;48.158;-1.586;2022-10-15T02:39:15;17.80;88.30
61374;DHT22;47242;48.158;-1.586;2022-10-15T02:41:43;17.80;88.50
61374;DHT22;47242;48.158;-1.586;2022-10-15T02:44:09;17.80;88.50
61374;DHT22;47242;48.158;-1.586;2022-10-15T02:46:37;17.80;88.10
61374;DHT22;47242;48.158;-1.586;2022-10-15T02:49:03;17.80;88.20
61374;DHT22;47242;48.158;-1.586;2022-10-15T02:51:33;17.80;88.30
61374;DHT22;47242;48.158;-1.586;2022-10-15T02:53:59;17.80;87.90
61374;DHT22;47242;48.158;-1.586;2022-10-15T02:56:25;17.80;88.10
61374;DHT22;47242;48.158;-1.586;2022-10-15T02:58:51;17.80;88.20
61374;DHT22;47242;48.158;-1.586;2022-10-15T03:01:17;17.80;88.20
61374;DHT22;47242;48.158;-1.586;2022-10-15T03:03:42;17.90;88.20
61374;DHT22;47242;48.158;-1.586;2022-10-15T03:06:08;17.80;87.90
61374;DHT22;47242;48.158;-1.586;2022-10-15T03:08:34;17.80;87.80
61374;DHT22;47242;48.158;-1.586;2022-10-15T03:11:00;17.80;88.00
61374;DHT22;47242;48.158;-1.586;2022-10-15T03:13:27;17.80;87.90
61374;DHT22;47242;48.158;-1.586;2022-10-15T03:15:53;17.80;87.90
61374;DHT22;47242;48.158;-1.586;2022-10-15T03:18:18;17.80;87.80
61374;DHT22;47242;48.158;-1.586;2022-10-15T03:20:54;17.80;87.90
61374;DHT22;47242;48.158;-1.586;2022-10-15T03:23:20;17.80;87.20
61374;DHT22;47242;48.158;-1.586;2022-10-15T03:25:46;17.70;87.50
61374;DHT22;47242;48.158;-1.586;2022-10-15T03:28:12;17.80;87.10
61374;DHT22;47242;48.158;-1.586;2022-10-15T03:30:37;17.70;87.40
61374;DHT22;47242;48.158;-1.586;2022-10-15T03:33:03;17.70;87.20
61374;DHT22;47242;48.158;-1.586;2022-10-15T03:35:29;17.70;86.80
61374;DHT22;47242;48.158;-1.586;2022-10-15T03:37:54;17.70;87.20
61374;DHT22;47242;48.158;-1.586;2022-10-15T03:40:20;17.60;86.60
61374;DHT22;47242;48.158;-1.586;2022-10-15T03:42:50;17.60;87.20
61374;DHT22;47242;48.158;-1.586;2022-10-15T03:45:16;17.60;87.20
61374;DHT22;47242;48.158;-1.586;2022-10-15T03:47:42;17.60;87.20
61374;DHT22;47242;48.158;-1.586;2022-10-15T03:50:08;17.60;87.20
61374;DHT22;47242;48.158;-1.586;2022-10-15T03:52:34;17.50;87.10
61374;DHT22;47242;48.158;-1.586;2022-10-15T03:55:00;17.60;87.40
61374;DHT22;47242;48.158;-1.586;2022-10-15T03:57:26;17.60;87.30
61374;DHT22;47242;48.158;-1.586;2022-10-15T03:59:51;17.60;87.10
61374;DHT22;47242;48.158;-1.586;2022-10-15T04:02:17;17.50;86.90
61374;DHT22;47242;48.158;-1.586;2022-10-15T04:04:43;17.50;87.20
61374;DHT22;47242;48.158;-1.586;2022-10-15T04:07:08;17.50;87.40
61374;DHT22;47242;48.158;-1.586;2022-10-15T04:09:34;17.60;87.40
61374;DHT22;47242;48.158;-1.586;2022-10-15T04:12:00;17.50;87.40
61374;DHT22;47242;48.158;-1.586;2022-10-15T04:14:25;17.50;87.40
61374;DHT22;47242;48.158;-1.586;2022-10-15T04:16:51;17.40;87.50
61374;DHT22;47242;48.158;-1.586;2022-10-15T04:19:16;17.40;87.50
61374;DHT22;47242;48.158;-1.586;2022-10-15T04:21:42;17.50;87.50
61374;DHT22;47242;48.158;-1.586;2022-10-15T04:24:08;17.50;87.50
61374;DHT22;47242;48.158;-1.586;2022-10-15T04:26:33;17.50;87.50
61374;DHT22;47242;48.158;-1.586;2022-10-15T04:28:59;17.50;87.30
61374;DHT22;47242;48.158;-1.586;2022-10-15T04:31:25;17.50;87.60
61374;DHT22;47242;48.158;-1.586;2022-10-15T04:33:50;17.50;87.40
61374;DHT22;47242;48.158;-1.586;2022-10-15T04:36:16;17.30;87.30
61374;DHT22;47242;48.158;-1.586;2022-10-15T04:38:42;17.40;87.50
61374;DHT22;47242;48.158;-1.586;2022-10-15T04:41:09;17.40;87.40
61374;DHT22;47242;48.158;-1.586;2022-10-15T04:43:36;17.40;87.30
61374;DHT22;47242;48.158;-1.586;2022-10-15T04:46:04;17.30;86.90
61374;DHT22;47242;48.158;-1.586;2022-10-15T04:48:31;17.30;87.10
61374;DHT22;47242;48.158;-1.586;2022-10-15T04:51:08;17.30;87.50
61374;DHT22;47242;48.158;-1.586;2022-10-15T04:53:35;17.30;87.50
61374;DHT22;47242;48.158;-1.586;2022-10-15T04:56:03;17.40;87.20
61374;DHT22;47242;48.158;-1.586;2022-10-15T04:58:34;17.30;87.40
61374;DHT22;47242;48.158;-1.586;2022-10-15T05:01:05;17.40;87.30
61374;DHT22;47242;48.158;-1.586;2022-10-15T05:03:32;17.40;87.30
61374;DHT22;47242;48.158;-1.586;2022-10-15T05:06:02;17.40;87.50
61374;DHT22;47242;48.158;-1.586;2022-10-15T05:08:28;17.30;87.10
61374;DHT22;47242;48.158;-1.586;2022-10-15T05:10:54;17.30;87.30
61374;DHT22;47242;48.158;-1.586;2022-10-15T05:13:24;17.30;87.30
61374;DHT22;47242;48.158;-1.586;2022-10-15T05:15:49;17.30;87.20
61374;DHT22;47242;48.158;-1.586;2022-10-15T05:18:15;17.40;87.30
61374;DHT22;47242;48.158;-1.586;2022-10-15T05:20:40;17.40;87.20
61374;DHT22;47242;48.158;-1.586;2022-10-15T05:23:07;17.30;87.00
61374;DHT22;47242;48.158;-1.586;2022-10-15T05:25:40;17.30;87.10
61374;DHT22;47242;48.158;-1.586;2022-10-15T05:28:12;17.30;87.30
61374;DHT22;47242;48.158;-1.586;2022-10-15T05:30:38;17.30;86.90
61374;DHT22;47242;48.158;-1.586;2022-10-15T05:33:04;17.40;87.10
61374;DHT22;47242;48.158;-1.586;2022-10-15T05:35:29;17.30;87.00
61374;DHT22;47242;48.158;-1.586;2022-10-15T05:37:55;17.30;86.90
61374;DHT22;47242;48.158;-1.586;2022-10-15T05:40:20;17.30;86.80
61374;DHT22;47242;48.158;-1.586;2022-10-15T05:42:55;17.30;86.90
61374;DHT22;47242;48.158;-1.586;2022-10-15T05:45:21;17.20;86.30
61374;DHT22;47242;48.158;-1.586;2022-10-15T05:47:47;17.20;86.90
61374;DHT22;47242;48.158;-1.586;2022-10-15T05:50:13;17.30;87.00
61374;DHT22;47242;48.158;-1.586;2022-10-15T05:52:39;17.30;86.60
61374;DHT22;47242;48.158;-1.586;2022-10-15T05:55:05;17.20;86.60
61374;DHT22;47242;48.158;-1.586;2022-10-15T05:57:30;17.20;86.60
61374;DHT22;47242;48.158;-1.586;2022-10-15T05:59:58;17.10;86.40
61374;DHT22;47242;48.158;-1.586;2022-10-15T06:02:24;17.20;86.50
61374;DHT22;47242;48.158;-1.586;2022-10-15T06:04:50;17.20;86.40
61374;DHT22;47242;48.158;-1.586;2022-10-15T06:07:17;17.10;86.30
61374;DHT22;47242;48.158;-1.586;2022-10-15T06:09:43;17.10;86.30
61374;DHT22;47242;48.158;-1.586;2022-10-15T06:12:09;17.10;86.30
61374;DHT22;47242;48.158;-1.586;2022-10-15T06:14:34;17.00;86.30
61374;DHT22;47242;48.158;-1.586;2022-10-15T06:17:10;17.00;86.30
61374;DHT22;47242;48.158;-1.586;2022-10-15T06:19:36;16.90;86.20
61374;DHT22;47242;48.158;-1.586;2022-10-15T06:22:01;16.90;85.90
61374;DHT22;47242;48.158;-1.586;2022-10-15T06:24:27;16.90;85.80
61374;DHT22;47242;48.158;-1.586;2022-10-15T06:26:52;16.90;85.80
61374;DHT22;47242;48.158;-1.586;2022-10-15T06:29:18;16.90;85.70
61374;DHT22;47242;48.158;-1.586;2022-10-15T06:31:44;16.80;85.70
61374;DHT22;47242;48.158;-1.586;2022-10-15T06:34:10;16.80;86.10
61374;DHT22;47242;48.158;-1.586;2022-10-15T06:36:36;16.80;85.60
61374;DHT22;47242;48.158;-1.586;2022-10-15T06:39:02;16.80;85.80
61374;DHT22;47242;48.158;-1.586;2022-10-15T06:41:28;16.80;85.60
61374;DHT22;47242;48.158;-1.586;2022-10-15T06:43:53;16.80;85.50
61374;DHT22;47242;48.158;-1.586;2022-10-15T06:46:19;16.80;85.70
61374;DHT22;47242;48.158;-1.586;2022-10-15T06:48:44;16.80;85.50
61374;DHT22;47242;48.158;-1.586;2022-10-15T06:51:10;16.80;85.70
61374;DHT22;47242;48.158;-1.586;2022-10-15T06:53:36;16.80;85.50
61374;DHT22;47242;48.158;-1.586;2022-10-15T06:56:05;16.80;85.50
61374;DHT22;47242;48.158;-1.586;2022-10-15T06:58:30;16.80;85.40
61374;DHT22;47242;48.158;-1.586;2022-10-15T07:01:03;16.80;84.90
61374;DHT22;47242;48.158;-1.586;2022-10-15T07:03:29;16.80;85.20
61374;DHT22;47242;48.158;-1.586;2022-10-15T07:05:55;16.80;85.00
61374;DHT22;47242;48.158;-1.586;2022-10-15T07:08:21;16.80;85.00
61374;DHT22;47242;48.158;-1.586;2022-10-15T07:10:47;16.80;85.00
61374;DHT22;47242;48.158;-1.586;2022-10-15T07:13:12;16.60;84.20
61374;DHT22;47242;48.158;-1.586;2022-10-15T07:15:38;16.60;84.70
61374;DHT22;47242;48.158;-1.586;2022-10-15T07:18:04;16.70;84.90
61374;DHT22;47242;48.158;-1.586;2022-10-15T07:20:30;16.70;84.90
61374;DHT22;47242;48.158;-1.586;2022-10-15T07:22:57;16.70;84.90
61374;DHT22;47242;48.158;-1.586;2022-10-15T07:25:24;16.70;84.50
61374;DHT22;47242;48.158;-1.586;2022-10-15T07:27:50;16.60;84.70
61374;DHT22;47242;48.158;-1.586;2022-10-15T07:30:16;16.70;84.80
61374;DHT22;47242;48.158;-1.586;2022-10-15T07:32:42;16.70;84.20
61374;DHT22;47242;48.158;-1.586;2022-10-15T07:35:08;16.60;84.40
61374;DHT22;47242;48.158;-1.586;2022-10-15T07:37:34;16.50;84.30
61374;DHT22;47242;48.158;-1.586;2022-10-15T07:40:00;16.50;84.40
61374;DHT22;47242;48.158;-1.586;2022-10-15T07:42:26;16.40;84.20
61374;DHT22;47242;48.158;-1.586;2022-10-15T07:44:51;16.40;84.20
61374;DHT22;47242;48.158;-1.586;2022-10-15T07:47:17;16.30;83.90
61374;DHT22;47242;48.158;-1.586;2022-10-15T07:49:43;16.30;84.40
61374;DHT22;47242;48.158;-1.586;2022-10-15T07:52:09;16.30;84.50
61374;DHT22;47242;48.158;-1.586;2022-10-15T07:54:34;16.30;84.60
61374;DHT22;47242;48.158;-1.586;2022-10-15T07:57:00;16.30;84.40
61374;DHT22;47242;48.158;-1.586;2022-10-15T07:59:26;16.30;84.30
61374;DHT22;47242;48.158;-1.586;2022-10-15T08:01:51;16.30;83.80
61374;DHT22;47242;48.158;-1.586;2022-10-15T08:04:17;16.30;84.30
61374;DHT22;47242;48.158;-1.586;2022-10-15T08:06:45;16.30;84.50
61374;DHT22;47242;48.158;-1.586;2022-10-15T08:09:11;16.20;84.50
61374;DHT22;47242;48.158;-1.586;2022-10-15T08:11:36;16.30;83.90
61374;DHT22;47242;48.158;-1.586;2022-10-15T08:14:02;16.30;84.50
61374;DHT22;47242;48.158;-1.586;2022-10-15T08:16:28;16.30;84.10
61374;DHT22;47242;48.158;-1.586;2022-10-15T08:18:56;16.40;84.00
61374;DHT22;47242;48.158;-1.586;2022-10-15T08:21:21;16.30;84.00
61374;DHT22;47242;48.158;-1.586;2022-10-15T08:23:47;16.40;83.90
61374;DHT22;47242;48.158;-1.586;2022-10-15T08:26:13;16.50;83.80
61374;DHT22;47242;48.158;-1.586;2022-10-15T08:28:38;16.60;83.60
61374;DHT22;47242;48.158;-1.586;2022-10-15T08:31:05;16.60;83.10
61374;DHT22;47242;48.158;-1.586;2022-10-15T08:33:31;16.60;83.50
61374;DHT22;47242;48.158;-1.586;2022-10-15T08:35:56;16.60;83.30
61374;DHT22;47242;48.158;-1.586;2022-10-15T08:38:22;16.60;83.50
61374;DHT22;47242;48.158;-1.586;2022-10-15T08:40:52;16.70;83.60
61374;DHT22;47242;48.158;-1.586;2022-10-15T08:46:05;16.80;83.00
61374;DHT22;47242;48.158;-1.586;2022-10-15T08:48:41;16.90;82.70
61374;DHT22;47242;48.158;-1.586;2022-10-15T08:53:42;17.10;83.00
61374;DHT22;47242;48.158;-1.586;2022-10-15T08:56:38;17.30;83.10
61374;DHT22;47242;48.158;-1.586;2022-10-15T09:01:56;17.50;82.50
61374;DHT22;47242;48.158;-1.586;2022-10-15T09:07:43;17.50;81.90
61374;DHT22;47242;48.158;-1.586;2022-10-15T09:12:59;17.50;80.90
61374;DHT22;47242;48.158;-1.586;2022-10-15T09:15:26;17.50;81.20
61374;DHT22;47242;48.158;-1.586;2022-10-15T09:17:56;17.50;81.00
61374;DHT22;47242;48.158;-1.586;2022-10-15T09:20:33;17.40;80.80
61374;DHT22;47242;48.158;-1.586;2022-10-15T09:22:59;17.50;80.50
61374;DHT22;47242;48.158;-1.586;2022-10-15T09:25:31;17.50;80.20
61374;DHT22;47242;48.158;-1.586;2022-10-15T09:28:01;17.50;80.80
61374;DHT22;47242;48.158;-1.586;2022-10-15T09:30:44;17.60;80.40
61374;DHT22;47242;48.158;-1.586;2022-10-15T09:33:32;17.60;80.50
61374;DHT22;47242;48.158;-1.586;2022-10-15T09:38:58;17.70;79.90
61374;DHT22;47242;48.158;-1.586;2022-10-15T09:44:19;17.80;80.30
61374;DHT22;47242;48.158;-1.586;2022-10-15T09:49:45;17.70;80.00
61374;DHT22;47242;48.158;-1.586;2022-10-15T09:52:24;17.70;79.90
61374;DHT22;47242;48.158;-1.586;2022-10-15T09:58:00;17.80;79.50
61374;DHT22;47242;48.158;-1.586;2022-10-15T10:03:15;17.90;79.80
61374;DHT22;47242;48.158;-1.586;2022-10-15T10:05:41;17.90;79.30
61374;DHT22;47242;48.158;-1.586;2022-10-15T10:08:20;17.90;79.70
61374;DHT22;47242;48.158;-1.586;2022-10-15T10:11:01;17.90;79.90
61374;DHT22;47242;48.158;-1.586;2022-10-15T10:15:59;17.90;79.70
61374;DHT22;47242;48.158;-1.586;2022-10-15T10:18:26;18.00;79.70
61374;DHT22;47242;48.158;-1.586;2022-10-15T10:20:57;18.00;78.90
61374;DHT22;47242;48.158;-1.586;2022-10-15T10:23:37;18.10;79.60
61374;DHT22;47242;48.158;-1.586;2022-10-15T10:26:04;18.20;79.60
61374;DHT22;47242;48.158;-1.586;2022-10-15T10:28:34;18.10;79.00
61374;DHT22;47242;48.158;-1.586;2022-10-15T10:31:02;18.20;78.60
61374;DHT22;47242;48.158;-1.586;2022-10-15T10:33:41;18.20;78.90
61374;DHT22;47242;48.158;-1.586;2022-10-15T10:36:19;18.20;78.80
61374;DHT22;47242;48.158;-1.586;2022-10-15T10:39:09;18.20;78.60
61374;DHT22;47242;48.158;-1.586;2022-10-15T10:42:01;18.20;79.20
61374;DHT22;47242;48.158;-1.586;2022-10-15T10:44:34;18.20;78.90
61374;DHT22;47242;48.158;-1.586;2022-10-15T10:47:13;18.20;78.20
61374;DHT22;47242;48.158;-1.586;2022-10-15T10:49:45;18.30;79.10
61374;DHT22;47242;48.158;-1.586;2022-10-15T10:52:40;18.40;78.80
61374;DHT22;47242;48.158;-1.586;2022-10-15T10:55:16;18.40;78.70
61374;DHT22;47242;48.158;-1.586;2022-10-15T10:57:53;18.40;78.80
61374;DHT22;47242;48.158;-1.586;2022-10-15T11:00:29;18.30;78.70
61374;DHT22;47242;48.158;-1.586;2022-10-15T11:02:56;18.40;79.00
61374;DHT22;47242;48.158;-1.586;2022-10-15T11:05:30;18.50;78.70
61374;DHT22;47242;48.158;-1.586;2022-10-15T11:08:09;18.70;78.70
61374;DHT22;47242;48.158;-1.586;2022-10-15T11:10:47;18.80;78.70
61374;DHT22;47242;48.158;-1.586;2022-10-15T11:13:38;18.80;76.90
61374;DHT22;47242;48.158;-1.586;2022-10-15T11:16:29;18.80;77.00
61374;DHT22;47242;48.158;-1.586;2022-10-15T11:22:07;19.10;76.50
61374;DHT22;47242;48.158;-1.586;2022-10-15T11:24:42;19.10;76.50
61374;DHT22;47242;48.158;-1.586;2022-10-15T11:31:28;19.10;76.30
61374;DHT22;47242;48.158;-1.586;2022-10-15T11:36:43;19.20;76.30
61374;DHT22;47242;48.158;-1.586;2022-10-15T11:42:35;19.00;76.10
61374;DHT22;47242;48.158;-1.586;2022-10-15T11:47:55;19.00;76.00
61374;DHT22;47242;48.158;-1.586;2022-10-15T11:56:10;18.80;76.80
61374;DHT22;47242;48.158;-1.586;2022-10-15T11:58:38;18.80;76.90
61374;DHT22;47242;48.158;-1.586;2022-10-15T12:01:19;18.80;76.20
61374;DHT22;47242;48.158;-1.586;2022-10-15T12:04:13;18.70;76.40
61374;DHT22;47242;48.158;-1.586;2022-10-15T12:06:49;18.80;76.30
61374;DHT22;47242;48.158;-1.586;2022-10-15T12:09:25;18.70;76.70
61374;DHT22;47242;48.158;-1.586;2022-10-15T12:12:07;18.70;77.10
61374;DHT22;47242;48.158;-1.586;2022-10-15T12:14:45;18.80;76.60
61374;DHT22;47242;48.158;-1.586;2022-10-15T12:17:38;18.80;76.80
61374;DHT22;47242;48.158;-1.586;2022-10-15T12:20:15;18.80;77.00
61374;DHT22;47242;48.158;-1.586;2022-10-15T12:28:03;19.10;76.20
61374;DHT22;47242;48.158;-1.586;2022-10-15T12:30:31;19.00;75.80
61374;DHT22;47242;48.158;-1.586;2022-10-15T12:33:03;18.90;75.80
61374;DHT22;47242;48.158;-1.586;2022-10-15T12:35:53;18.90;75.70
61374;DHT22;47242;48.158;-1.586;2022-10-15T12:40:46;19.10;74.60
61374;DHT22;47242;48.158;-1.586;2022-10-15T12:43:19;19.20;74.40
61374;DHT22;47242;48.158;-1.586;2022-10-15T12:45:53;19.20;74.20
61374;DHT22;47242;48.158;-1.586;2022-10-15T12:48:28;19.30;73.10
61374;DHT22;47242;48.158;-1.586;2022-10-15T12:53:47;19.50;71.90
61374;DHT22;47242;48.158;-1.586;2022-10-15T12:58:43;19.50;70.60
61374;DHT22;47242;48.158;-1.586;2022-10-15T13:06:22;19.40;71.30
61374;DHT22;47242;48.158;-1.586;2022-10-15T13:11:30;19.40;70.20
61374;DHT22;47242;48.158;-1.586;2022-10-15T13:16:52;19.50;68.50
61374;DHT22;47242;48.158;-1.586;2022-10-15T13:19:45;19.70;67.60
61374;DHT22;47242;48.158;-1.586;2022-10-15T13:22:20;19.80;67.80
61374;DHT22;47242;48.158;-1.586;2022-10-15T13:24:46;19.80;68.00
61374;DHT22;47242;48.158;-1.586;2022-10-15T13:27:19;19.80;67.60
61374;DHT22;47242;48.158;-1.586;2022-10-15T13:29:56;19.80;67.50
61374;DHT22;47242;48.158;-1.586;2022-10-15T13:32:23;19.70;67.60
61374;DHT22;47242;48.158;-1.586;2022-10-15T13:34:49;19.80;67.90
61374;DHT22;47242;48.158;-1.586;2022-10-15T13:37:25;19.80;65.80
61374;DHT22;47242;48.158;-1.586;2022-10-15T13:39:52;19.70;67.10
61374;DHT22;47242;48.158;-1.586;2022-10-15T13:42:20;19.60;67.70
61374;DHT22;47242;48.158;-1.586;2022-10-15T13:44:59;19.60;67.10
61374;DHT22;47242;48.158;-1.586;2022-10-15T13:47:38;19.80;67.90
61374;DHT22;47242;48.158;-1.586;2022-10-15T13:52:49;19.80;66.10
61374;DHT22;47242;48.158;-1.586;2022-10-15T13:55:25;19.80;66.80
61374;DHT22;47242;48.158;-1.586;2022-10-15T13:57:58;19.80;64.90
61374;DHT22;47242;48.158;-1.586;2022-10-15T14:00:32;19.80;66.60
61374;DHT22;47242;48.158;-1.586;2022-10-15T14:03:12;19.80;65.60
61374;DHT22;47242;48.158;-1.586;2022-10-15T14:05:39;19.80;65.60
61374;DHT22;47242;48.158;-1.586;2022-10-15T14:08:05;19.70;65.40
61374;DHT22;47242;48.158;-1.586;2022-10-15T14:10:37;19.80;64.80
61374;DHT22;47242;48.158;-1.586;2022-10-15T14:13:03;19.80;64.80
61374;DHT22;47242;48.158;-1.586;2022-10-15T14:16:10;19.80;65.40
61374;DHT22;47242;48.158;-1.586;2022-10-15T14:18:44;19.80;64.40
61374;DHT22;47242;48.158;-1.586;2022-10-15T14:21:22;19.80;64.70
61374;DHT22;47242;48.158;-1.586;2022-10-15T14:24:11;19.80;63.30
61374;DHT22;47242;48.158;-1.586;2022-10-15T14:26:38;19.70;64.00
61374;DHT22;47242;48.158;-1.586;2022-10-15T14:29:04;19.60;64.40
61374;DHT22;47242;48.158;-1.586;2022-10-15T14:31:37;19.50;64.50
61374;DHT22;47242;48.158;-1.586;2022-10-15T14:34:03;19.50;64.90
61374;DHT22;47242;48.158;-1.586;2022-10-15T14:36:31;19.50;63.60
61374;DHT22;47242;48.158;-1.586;2022-10-15T14:39:33;19.40;63.80
61374;DHT22;47242;48.158;-1.586;2022-10-15T14:42:02;19.30;64.70
61374;DHT22;47242;48.158;-1.586;2022-10-15T14:44:45;19.30;64.90
61374;DHT22;47242;48.158;-1.586;2022-10-15T14:47:30;19.30;63.80
61374;DHT22;47242;48.158;-1.586;2022-10-15T14:49:59;19.40;64.10
61374;DHT22;47242;48.158;-1.586;2022-10-15T14:52:26;19.30;64.70
61374;DHT22;47242;48.158;-1.586;2022-10-15T14:55:02;19.40;65.30
61374;DHT22;47242;48.158;-1.586;2022-10-15T14:57:33;19.40;65.20
61374;DHT22;47242;48.158;-1.586;2022-10-15T15:00:00;19.40;64.10
61374;DHT22;47242;48.158;-1.586;2022-10-15T15:02:27;19.40;63.80
61374;DHT22;47242;48.158;-1.586;2022-10-15T15:07:37;19.40;64.40
61374;DHT22;47242;48.158;-1.586;2022-10-15T15:10:04;19.40;64.50
61374;DHT22;47242;48.158;-1.586;2022-10-15T15:12:30;19.50;64.70
61374;DHT22;47242;48.158;-1.586;2022-10-15T15:14:57;19.50;64.10
61374;DHT22;47242;48.158;-1.586;2022-10-15T15:17:25;19.40;64.30
61374;DHT22;47242;48.158;-1.586;2022-10-15T15:19:52;19.40;64.40
61374;DHT22;47242;48.158;-1.586;2022-10-15T15:22:37;19.30;64.10
61374;DHT22;47242;48.158;-1.586;2022-10-15T15:25:19;19.30;64.00
61374;DHT22;47242;48.158;-1.586;2022-10-15T15:27:46;19.30;64.20
61374;DHT22;47242;48.158;-1.586;2022-10-15T15:30:20;19.30;63.30
61374;DHT22;47242;48.158;-1.586;2022-10-15T15:32:47;19.30;63.90
61374;DHT22;47242;48.158;-1.586;2022-10-15T15:35:28;19.30;64.30
61374;DHT22;47242;48.158;-1.586;2022-10-15T15:37:55;19.30;63.60
61374;DHT22;47242;48.158;-1.586;2022-10-15T15:40:20;19.20;63.90
61374;DHT22;47242;48.158;-1.586;2022-10-15T15:42:46;19.10;63.20
61374;DHT22;47242;48.158;-1.586;2022-10-15T15:45:24;19.10;64.00
61374;DHT22;47242;48.158;-1.586;2022-10-15T15:47:50;19.00;64.30
61374;DHT22;47242;48.158;-1.586;2022-10-15T15:50:17;18.90;65.40
61374;DHT22;47242;48.158;-1.586;2022-10-15T15:52:43;18.90;64.90
61374;DHT22;47242;48.158;-1.586;2022-10-15T15:55:09;18.90;65.10
61374;DHT22;47242;48.158;-1.586;2022-10-15T15:57:35;18.80;64.80
61374;DHT22;47242;48.158;-1.586;2022-10-15T16:00:01;18.80;64.70
61374;DHT22;47242;48.158;-1.586;2022-10-15T16:02:26;18.80;65.20
61374;DHT22;47242;48.158;-1.586;2022-10-15T16:04:52;18.80;65.10
61374;DHT22;47242;48.158;-1.586;2022-10-15T16:07:18;18.80;65.20
61374;DHT22;47242;48.158;-1.586;2022-10-15T16:09:43;18.80;64.60
61374;DHT22;47242;48.158;-1.586;2022-10-15T16:12:09;18.70;64.70
61374;DHT22;47242;48.158;-1.586;2022-10-15T16:14:35;18.60;65.50
61374;DHT22;47242;48.158;-1.586;2022-10-15T16:17:00;18.50;65.30
61374;DHT22;47242;48.158;-1.586;2022-10-15T16:19:26;18.50;65.40
61374;DHT22;47242;48.158;-1.586;2022-10-15T16:21:52;18.40;65.50
61374;DHT22;47242;48.158;-1.586;2022-10-15T16:24:17;18.40;65.80
61374;DHT22;47242;48.158;-1.586;2022-10-15T16:26:43;18.40;65.90
61374;DHT22;47242;48.158;-1.586;2022-10-15T16:29:09;18.40;66.10
61374;DHT22;47242;48.158;-1.586;2022-10-15T16:31:34;18.40;66.50
61374;DHT22;47242;48.158;-1.586;2022-10-15T16:34:04;18.40;66.80
61374;DHT22;47242;48.158;-1.586;2022-10-15T16:36:30;18.40;66.90
61374;DHT22;47242;48.158;-1.586;2022-10-15T16:38:56;18.30;66.90
61374;DHT22;47242;48.158;-1.586;2022-10-15T16:41:22;18.30;67.30
61374;DHT22;47242;48.158;-1.586;2022-10-15T16:43:48;18.30;67.30
61374;DHT22;47242;48.158;-1.586;2022-10-15T16:46:16;18.30;67.60
61374;DHT22;47242;48.158;-1.586;2022-10-15T16:48:42;18.20;67.70
61374;DHT22;47242;48.158;-1.586;2022-10-15T16:51:13;18.20;67.80
61374;DHT22;47242;48.158;-1.586;2022-10-15T16:53:41;18.20;67.70
61374;DHT22;47242;48.158;-1.586;2022-10-15T16:56:08;18.10;68.00
61374;DHT22;47242;48.158;-1.586;2022-10-15T16:58:34;18.20;68.30
61374;DHT22;47242;48.158;-1.586;2022-10-15T17:01:05;18.10;67.80
61374;DHT22;47242;48.158;-1.586;2022-10-15T17:03:33;18.10;67.60
61374;DHT22;47242;48.158;-1.586;2022-10-15T17:06:00;18.00;67.90
61374;DHT22;47242;48.158;-1.586;2022-10-15T17:08:29;18.00;68.10
61374;DHT22;47242;48.158;-1.586;2022-10-15T17:11:00;18.00;68.30
61374;DHT22;47242;48.158;-1.586;2022-10-15T17:13:25;17.80;68.30
61374;DHT22;47242;48.158;-1.586;2022-10-15T17:15:51;17.80;68.00
61374;DHT22;47242;48.158;-1.586;2022-10-15T17:18:17;17.80;68.40
61374;DHT22;47242;48.158;-1.586;2022-10-15T17:20:44;17.80;68.70
61374;DHT22;47242;48.158;-1.586;2022-10-15T17:23:22;17.80;69.00
61374;DHT22;47242;48.158;-1.586;2022-10-15T17:25:48;17.80;69.20
61374;DHT22;47242;48.158;-1.586;2022-10-15T17:28:13;17.80;69.10
61374;DHT22;47242;48.158;-1.586;2022-10-15T17:30:39;17.80;69.40